地図

経路データ

SID SEASON NUMBER BASIN SUBBASIN NAME ISO_TIME NATURE LAT LON WMO_WIND WMO_PRES WMO_AGENCY TRACK_TYPE DIST2LAND LANDFALL IFLAG USA_AGENCY USA_ATCF_ID USA_LAT USA_LON USA_RECORD USA_STATUS USA_WIND USA_PRES USA_SSHS USA_R34_NE USA_R34_SE USA_R34_SW USA_R34_NW USA_R50_NE USA_R50_SE USA_R50_SW USA_R50_NW USA_R64_NE USA_R64_SE USA_R64_SW USA_R64_NW USA_POCI USA_ROCI USA_RMW USA_EYE TOKYO_LAT TOKYO_LON TOKYO_GRADE TOKYO_WIND TOKYO_PRES TOKYO_R50_DIR TOKYO_R50_LONG TOKYO_R50_SHORT TOKYO_R30_DIR TOKYO_R30_LONG TOKYO_R30_SHORT TOKYO_LAND CMA_LAT CMA_LON CMA_CAT CMA_WIND CMA_PRES HKO_LAT HKO_LON HKO_CAT HKO_WIND HKO_PRES NEWDELHI_LAT NEWDELHI_LON NEWDELHI_GRADE NEWDELHI_WIND NEWDELHI_PRES NEWDELHI_CI NEWDELHI_DP NEWDELHI_POCI REUNION_LAT REUNION_LON REUNION_TYPE REUNION_WIND REUNION_PRES REUNION_TNUM REUNION_CI REUNION_RMW REUNION_R34_NE REUNION_R34_SE REUNION_R34_SW REUNION_R34_NW REUNION_R50_NE REUNION_R50_SE REUNION_R50_SW REUNION_R50_NW REUNION_R64_NE REUNION_R64_SE REUNION_R64_SW REUNION_R64_NW BOM_LAT BOM_LON BOM_TYPE BOM_WIND BOM_PRES BOM_TNUM BOM_CI BOM_RMW BOM_R34_NE BOM_R34_SE BOM_R34_SW BOM_R34_NW BOM_R50_NE BOM_R50_SE BOM_R50_SW BOM_R50_NW BOM_R64_NE BOM_R64_SE BOM_R64_SW BOM_R64_NW BOM_ROCI BOM_POCI BOM_EYE BOM_POS_METHOD BOM_PRES_METHOD NADI_LAT NADI_LON NADI_CAT NADI_WIND NADI_PRES WELLINGTON_LAT WELLINGTON_LON WELLINGTON_WIND WELLINGTON_PRES DS824_LAT DS824_LON DS824_STAGE DS824_WIND DS824_PRES TD9636_LAT TD9636_LON TD9636_STAGE TD9636_WIND TD9636_PRES TD9635_LAT TD9635_LON TD9635_WIND TD9635_PRES TD9635_ROCI NEUMANN_LAT NEUMANN_LON NEUMANN_CLASS NEUMANN_WIND NEUMANN_PRES MLC_LAT MLC_LON MLC_CLASS MLC_WIND MLC_PRES USA_GUST BOM_GUST BOM_GUST_PER REUNION_GUST REUNION_GUST_PER USA_SEAHGT USA_SEARAD_NE USA_SEARAD_SE USA_SEARAD_SW USA_SEARAD_NW STORM_SPEED STORM_DIR
2022057S13128 2022 12 SI WA ANIKA 2022-02-25 12:00:00 NR -12.8000 127.800 PROVISIONAL 135 119 O_____________ tcvitals SI152022 -12.8000 127.800 35 999 0 55 55 50 55 1005 135 30 2 224
2022057S13128 2022 12 SI WA ANIKA 2022-02-25 15:00:00 NR -12.8800 127.715 PROVISIONAL 119 104 P_____________ SI152022 -12.8800 127.715 40 994 0 60 65 60 85 1003 147 30 3 224
2022057S13128 2022 12 SI WA ANIKA 2022-02-25 18:00:00 NR -13.0000 127.600 PROVISIONAL 104 79 O_____________ tcvitals SI152022 -13.0000 127.600 45 990 0 65 75 70 115 1002 160 30 4 222
2022057S13128 2022 12 SI WA ANIKA 2022-02-25 21:00:00 NR -13.1725 127.443 PROVISIONAL 74 60 P_____________ SI152022 -13.1725 127.443 45 992 0 70 72 67 97 1004 150 27 4 224
2022057S13128 2022 12 SI WA ANIKA 2022-02-26 00:00:00 NR -13.3000 127.300 PROVISIONAL 60 60 O_____________ tcvitals SI152022 -13.3000 127.300 45 995 0 75 70 65 80 1006 140 25 2 251
2022057S13128 2022 12 SI WA ANIKA 2022-02-26 03:00:00 NR -13.2350 127.250 PROVISIONAL 68 68 P_____________ SI152022 -13.2350 127.250 49 992 0 75 70 65 85 1006 140 25 1 317
2022057S13128 2022 12 SI WA ANIKA 2022-02-26 06:00:00 NR -13.2000 127.200 PROVISIONAL 68 44 O_____________ tcvitals SI152022 -13.2000 127.200 54 989 0 75 70 65 90 1006 140 25 3 237
2022057S13128 2022 12 SI WA ANIKA 2022-02-26 09:00:00 NR -13.3900 127.005 PROVISIONAL 44 11 P_____________ SI152022 -13.3900 127.005 54 989 0 77 65 70 92 1006 140 25 6 210
2022057S13128 2022 12 SI WA ANIKA 2022-02-26 12:00:00 NR -13.7000 126.900 PROVISIONAL 11 0 O_____________ tcvitals SI152022 -13.7000 126.900 54 990 0 80 60 75 95 1006 140 25 7 163
2022057S13128 2022 12 SI WA ANIKA 2022-02-26 15:00:00 NR -14.0725 127.224 PROVISIONAL 0 0 P_____________ SI152022 -14.0725 127.224 44 989 0 52 40 47 1004 117 25 9 145
2022057S13128 2022 12 SI WA ANIKA 2022-02-26 18:00:00 NR -14.4000 127.400 PROVISIONAL 0 0 O_____________ tcvitals SI152022 -14.4000 127.400 35 988 0 25 20 20 1003 95 25 7 223
2022057S13128 2022 12 SI WA ANIKA 2022-02-26 21:00:00 NR -14.5535 126.765 PROVISIONAL 0 0 P_____________ SI152022 -14.5535 126.765 32 989 -1 1003 95 25 13 261
2022057S13128 2022 12 SI WA ANIKA 2022-02-27 00:00:00 NR -14.6000 126.100 PROVISIONAL 0 0 O_____________ tcvitals SI152022 -14.6000 126.100 29 991 -1 1003 95 25 6 267
2022057S13128 2022 12 SI WA ANIKA 2022-02-27 03:00:00 NR -14.5848 126.160 PROVISIONAL 0 0 P_____________ SI152022 -14.5848 126.160 29 994 -1 1003 85 25 3 90
2022057S13128 2022 12 SI WA ANIKA 2022-02-27 06:00:00 NR -14.6000 126.400 PROVISIONAL 0 0 O_____________ tcvitals SI152022 -14.6000 126.400 29 998 -1 1003 75 25 3 128
2022057S13128 2022 12 SI WA ANIKA 2022-02-27 09:00:00 NR -14.7700 126.402 PROVISIONAL 0 0 P_____________ SI152022 -14.7700 126.402 29 998 -1 1003 77 25 4 193
2022057S13128 2022 12 SI WA ANIKA 2022-02-27 12:00:00 NR -15.0000 126.300 PROVISIONAL 0 0 O_____________ tcvitals SI152022 -15.0000 126.300 29 998 -1 1003 80 25 5 212
2022057S13128 2022 12 SI WA ANIKA 2022-02-27 15:00:00 NR -15.2075 126.115 PROVISIONAL 0 0 P_____________ SI152022 -15.2075 126.115 29 999 -1 1003 85 25 6 224
2022057S13128 2022 12 SI WA ANIKA 2022-02-27 18:00:00 NR -15.4000 125.900 PROVISIONAL 0 0 O_____________ tcvitals SI152022 -15.4000 125.900 29 1000 -1 1003 90 25 5 228
2022057S13128 2022 12 SI WA ANIKA 2022-02-27 21:00:00 NR -15.5425 125.735 PROVISIONAL 0 0 P_____________ SI152022 -15.5425 125.735 29 1000 -1 1003 90 25 4 224
2022057S13128 2022 12 SI WA ANIKA 2022-02-28 00:00:00 NR -15.7000 125.600 PROVISIONAL 0 0 O_____________ tcvitals SI152022 -15.7000 125.600 29 1000 -1 1003 90 25 5 208
2022057S13128 2022 12 SI WA ANIKA 2022-02-28 03:00:00 NR -15.9500 125.507 PROVISIONAL 0 0 P_____________ SI152022 -15.9500 125.507 29 999 -1 1003 90 25 5 201
2022057S13128 2022 12 SI WA ANIKA 2022-02-28 06:00:00 NR -16.2000 125.400 PROVISIONAL 0 0 O_____________ tcvitals SI152022 -16.2000 125.400 29 998 -1 1003 90 25 5 214
2022057S13128 2022 12 SI WA ANIKA 2022-02-28 09:00:00 NR -16.3425 125.230 PROVISIONAL 0 0 P_____________ SI152022 -16.3425 125.230 27 999 -1 1003 95 25 5 232
2022057S13128 2022 12 SI WA ANIKA 2022-02-28 12:00:00 NR -16.5000 125.000 PROVISIONAL 0 0 O_____________ tcvitals SI152022 -16.5000 125.000 25 1001 -1 1004 100 25 6 226
2022057S13128 2022 12 SI WA ANIKA 2022-02-28 15:00:00 NR -16.7848 124.752 PROVISIONAL 0 0 P_____________ SI152022 -16.7848 124.752 25 1001 -1 1004 100 25 8 224
2022057S13128 2022 12 SI WA ANIKA 2022-02-28 18:00:00 NR -17.1000 124.400 PROVISIONAL 0 0 O_____________ tcvitals SI152022 -17.1000 124.400 25 1001 -1 1004 100 25 10 233
2022057S13128 2022 12 SI WA ANIKA 2022-02-28 21:00:00 NR -17.4101 123.888 PROVISIONAL 0 0 P_____________ SI152022 -17.4101 123.888 25 1001 -1 1004 110 27 12 245
2022057S13128 2022 12 SI WA ANIKA 2022-03-01 00:00:00 NR -17.6000 123.300 PROVISIONAL 0 0 O_____________ tcvitals SI152022 -17.6000 123.300 25 1002 -1 1004 120 30 12 265
2022057S13128 2022 12 SI WA ANIKA 2022-03-01 03:00:00 NR -17.5152 122.682 PROVISIONAL 0 0 P_____________ SI152022 -17.5152 122.682 27 1000 -1 1003 120 30 11 281
2022057S13128 2022 12 SI WA ANIKA 2022-03-01 06:00:00 NR -17.4000 122.200 PROVISIONAL 0 0 O_____________ tcvitals SI152022 -17.4000 122.200 29 998 -1 1002 120 30 6 272
2022057S13128 2022 12 SI WA ANIKA 2022-03-01 09:00:00 NR -17.4972 122.048 PROVISIONAL 15 10 P_____________ SI152022 -17.4972 122.048 29 998 -1 1002 125 30 4 212
2022057S13128 2022 12 SI WA ANIKA 2022-03-01 12:00:00 NR -17.7000 122.000 PROVISIONAL 15 15 O_____________ tcvitals SI152022 -17.7000 122.000 29 998 -1 1003 130 30 5 206
2022057S13128 2022 12 SI WA ANIKA 2022-03-01 15:00:00 NR -17.9275 121.822 PROVISIONAL 42 38 P_____________ SI152022 -17.9275 121.822 32 997 -1 1002 140 30 6 217
2022057S13128 2022 12 SI WA ANIKA 2022-03-01 18:00:00 NR -18.2000 121.600 PROVISIONAL 38 30 O_____________ tcvitals SI152022 -18.2000 121.600 35 997 0 20 15 25 35 1001 150 30 7 219
2022057S13128 2022 12 SI WA ANIKA 2022-03-01 21:00:00 NR -18.4850 121.350 PROVISIONAL 43 42 P_____________ SI152022 -18.4850 121.350 35 997 0 27 37 1002 155 30 8 218
2022057S13128 2022 12 SI WA ANIKA 2022-03-02 00:00:00 NR -18.8000 121.100 PROVISIONAL 53 46 O_____________ tcvitals SI152022 -18.8000 121.100 35 997 0 40 50 1003 160 30 8 213
2022057S13128 2022 12 SI WA ANIKA 2022-03-02 03:00:00 NR -19.1650 120.878 PROVISIONAL 38 22 P_____________ SI152022 -19.1650 120.878 37 994 0 42 47 1001 150 25 8 208
2022057S13128 2022 12 SI WA ANIKA 2022-03-02 06:00:00 NR -19.5000 120.700 PROVISIONAL 22 10 O_____________ tcvitals SI152022 -19.5000 120.700 39 992 0 50 45 45 50 1000 140 20 6 211
2022057S13128 2022 12 SI WA ANIKA 2022-03-02 09:00:00 NR -19.7083 120.532 PROVISIONAL 11 0 P_____________ SI152022 -19.7083 120.532 42 992 0 47 40 42 50 1000 133 17 4 205
2022057S13128 2022 12 SI WA ANIKA 2022-03-02 12:00:00 NR -19.9000 120.500 PROVISIONAL 0 0 O_____________ tcvitals SI152022 -19.9000 120.500 45 992 0 45 35 40 50 1000 126 14 5 164
2022057S13128 2022 12 SI WA ANIKA 2022-03-02 15:00:00 NR -20.1674 120.668 PROVISIONAL 0 0 P_____________ SI152022 -20.1674 120.668 -5 8 141
2022057S13128 2022 12 SI WA ANIKA 2022-03-02 18:00:00 NR -20.4883 121.003 PROVISIONAL 0 0 O_____________ tcvitals SI152022 -20.4883 121.002 -5 10 134
2022057S13128 2022 12 SI WA ANIKA 2022-03-02 21:00:00 NR -20.8545 121.436 PROVISIONAL 0 0 P_____________ SI152022 -20.8545 121.436 -5 11 131
2022057S13128 2022 12 SI WA ANIKA 2022-03-03 00:00:00 NR -21.2442 121.918 PROVISIONAL 0 O_____________ tcvitals SI152022 -21.2443 121.918 -5 12 131

IBTrACS Databaseについて

本データベースは、米国NOAAが公開する1842年以降の世界の熱帯低気圧のベストトラックデータアーカイブInternational Best Track Archive for Climate Stewardship (IBTrACS)を、ウェブで閲覧しやすい形式に変換したものです。

最終更新日:2022-05-24